createdAt,value
2023-05-22T00:00:14.640Z,17.08
2023-05-22T00:03:04.238Z,17.09
2023-05-22T00:05:38.215Z,17.09
2023-05-22T00:08:11.121Z,17.11
2023-05-22T00:10:40.133Z,17.11
2023-05-22T00:13:09.478Z,17.09
2023-05-22T00:15:38.559Z,17.11
2023-05-22T00:18:08.377Z,17.11
2023-05-22T00:20:38.161Z,17.11
2023-05-22T00:23:12.165Z,17.12
2023-05-22T00:25:42.171Z,17.12
2023-05-22T00:28:12.806Z,17.11
2023-05-22T00:30:41.950Z,17.11
2023-05-22T00:33:11.486Z,17.12
2023-05-22T00:35:40.476Z,17.13
2023-05-22T00:38:09.603Z,17.12
2023-05-22T00:40:38.888Z,17.11
2023-05-22T00:43:08.965Z,17.10
2023-05-22T00:45:38.157Z,17.09
2023-05-22T00:48:09.132Z,17.08
2023-05-22T00:50:38.487Z,17.07
2023-05-22T00:53:08.113Z,17.08
2023-05-22T00:55:37.165Z,17.09
2023-05-22T00:58:08.921Z,17.09
2023-05-22T01:00:39.293Z,17.08
2023-05-22T01:03:09.642Z,17.07
2023-05-22T01:05:39.985Z,17.08
2023-05-22T01:08:09.585Z,17.10
2023-05-22T01:10:40.056Z,17.10
2023-05-22T01:13:27.341Z,17.10
2023-05-22T01:16:10.875Z,17.11
2023-05-22T01:18:44.437Z,17.11
2023-05-22T01:21:22.021Z,17.12
2023-05-22T01:24:30.153Z,17.13
2023-05-22T01:27:34.910Z,17.13
2023-05-22T01:30:26.655Z,17.14
2023-05-22T01:32:58.259Z,17.15
2023-05-22T01:35:28.920Z,17.16
2023-05-22T01:38:00.394Z,17.18
2023-05-22T01:40:31.150Z,17.20
2023-05-22T01:43:00.778Z,17.21
2023-05-22T01:45:31.136Z,17.22
2023-05-22T01:48:00.328Z,17.22
2023-05-22T01:50:29.372Z,17.22
2023-05-22T01:53:12.241Z,17.21
2023-05-22T01:55:50.766Z,17.18
2023-05-22T01:58:28.893Z,17.11
2023-05-22T02:01:01.163Z,17.10
2023-05-22T02:03:33.243Z,17.09
2023-05-22T02:06:07.644Z,17.09
2023-05-22T02:08:39.933Z,17.09
2023-05-22T02:11:11.010Z,17.08
2023-05-22T02:13:41.140Z,17.09
2023-05-22T02:16:11.638Z,17.09
2023-05-22T02:18:42.836Z,17.09
2023-05-22T02:21:11.903Z,17.08
2023-05-22T02:23:41.216Z,17.10
2023-05-22T02:26:10.491Z,17.10
2023-05-22T02:28:42.308Z,17.09
2023-05-22T02:31:11.308Z,17.08
2023-05-22T02:33:40.309Z,17.07
2023-05-22T02:36:12.452Z,17.05
2023-05-22T02:38:41.573Z,17.01
2023-05-22T02:41:10.427Z,16.99
2023-05-22T02:43:39.290Z,16.99
2023-05-22T02:46:08.266Z,16.98
2023-05-22T02:48:37.333Z,16.99
2023-05-22T02:51:06.598Z,17.01
2023-05-22T02:53:39.616Z,17.02
2023-05-22T02:56:10.099Z,17.02
2023-05-22T02:58:39.585Z,17.03
2023-05-22T03:01:09.951Z,17.02
2023-05-22T03:03:39.108Z,17.03
2023-05-22T03:06:09.850Z,17.03
2023-05-22T03:08:42.833Z,17.02
2023-05-22T03:11:11.851Z,17.05
2023-05-22T03:13:41.028Z,17.06
2023-05-22T03:16:10.157Z,17.07
2023-05-22T03:18:39.215Z,17.07
2023-05-22T03:21:08.262Z,17.08
2023-05-22T03:23:37.119Z,17.09
2023-05-22T03:26:06.109Z,17.11
2023-05-22T03:28:35.357Z,17.12
2023-05-22T03:31:04.502Z,17.12
2023-05-22T03:33:33.359Z,17.13
2023-05-22T03:36:03.051Z,17.14
2023-05-22T03:38:32.080Z,17.15
2023-05-22T03:41:01.115Z,17.16
2023-05-22T03:43:30.414Z,17.16
2023-05-22T03:45:59.472Z,17.18
2023-05-22T03:48:28.575Z,17.21
2023-05-22T03:50:57.629Z,17.21
2023-05-22T03:53:26.657Z,17.24
2023-05-22T03:55:57.353Z,17.26
2023-05-22T03:58:26.432Z,17.28
2023-05-22T04:00:58.069Z,17.30
2023-05-22T04:03:27.301Z,17.31
2023-05-22T04:05:56.713Z,17.30
2023-05-22T04:08:25.862Z,17.33
2023-05-22T04:10:55.065Z,17.38
2023-05-22T04:13:24.126Z,17.41
2023-05-22T04:15:53.332Z,17.46
2023-05-22T04:18:22.378Z,17.51
2023-05-22T04:20:51.346Z,17.54
2023-05-22T04:23:20.950Z,17.60
2023-05-22T04:25:50.138Z,17.66
2023-05-22T04:28:21.801Z,17.72
2023-05-22T04:30:50.973Z,17.78
2023-05-22T04:33:19.886Z,17.85
2023-05-22T04:35:48.843Z,17.92
2023-05-22T04:38:18.400Z,17.96
2023-05-22T04:40:47.851Z,18.04
2023-05-22T04:43:18.144Z,18.12
2023-05-22T04:45:47.156Z,18.20
2023-05-22T04:48:16.299Z,18.25
2023-05-22T04:50:45.829Z,18.33
2023-05-22T04:53:14.757Z,18.39
2023-05-22T04:55:43.989Z,18.44
2023-05-22T04:58:13.066Z,18.48
2023-05-22T05:00:42.381Z,18.55
2023-05-22T05:03:12.076Z,18.63
2023-05-22T05:05:41.237Z,18.71
2023-05-22T05:08:10.430Z,18.77
2023-05-22T05:10:39.410Z,18.81
2023-05-22T05:13:08.757Z,18.81
2023-05-22T05:15:37.555Z,18.84
2023-05-22T05:18:06.750Z,18.87
2023-05-22T05:20:35.805Z,18.90
2023-05-22T05:23:05.224Z,18.96
2023-05-22T05:25:35.502Z,19.03
2023-05-22T05:28:10.165Z,19.07
2023-05-22T05:30:40.738Z,19.10
2023-05-22T05:33:11.024Z,19.13
2023-05-22T05:35:42.711Z,19.15
2023-05-22T05:38:12.281Z,19.16
2023-05-22T05:40:41.793Z,19.17
2023-05-22T05:43:10.869Z,19.23
2023-05-22T05:45:39.842Z,19.33
2023-05-22T05:48:09.344Z,19.44
2023-05-22T05:50:38.558Z,19.55
2023-05-22T05:53:09.176Z,19.67
2023-05-22T05:55:38.158Z,19.76
2023-05-22T05:58:06.998Z,19.84
2023-05-22T06:00:36.187Z,19.96
2023-05-22T06:03:05.472Z,20.10
2023-05-22T06:05:34.819Z,20.21
2023-05-22T06:08:05.629Z,20.32
2023-05-22T06:10:34.748Z,20.42
2023-05-22T06:13:03.796Z,20.52
2023-05-22T06:15:32.761Z,20.63
2023-05-22T06:18:02.244Z,20.70
2023-05-22T06:20:31.267Z,20.78
2023-05-22T06:23:00.332Z,20.86
2023-05-22T06:25:29.986Z,20.91
2023-05-22T06:27:58.992Z,20.96
2023-05-22T06:30:39.540Z,20.99
2023-05-22T06:33:13.934Z,21.02
2023-05-22T06:35:43.026Z,21.01
2023-05-22T06:38:12.012Z,21.02
2023-05-22T06:40:41.122Z,21.10
2023-05-22T06:43:10.727Z,21.15
2023-05-22T06:45:39.829Z,21.23
2023-05-22T06:48:09.177Z,21.37
2023-05-22T06:50:38.505Z,21.49
2023-05-22T06:53:07.990Z,21.63
2023-05-22T06:55:37.142Z,21.79
2023-05-22T06:58:06.135Z,21.95
2023-05-22T07:00:35.199Z,22.09
2023-05-22T07:03:06.263Z,22.20
2023-05-22T07:05:35.269Z,22.31
2023-05-22T07:08:04.579Z,22.40
2023-05-22T07:10:33.696Z,22.51
2023-05-22T07:13:03.348Z,22.70
2023-05-22T07:15:32.281Z,22.83
2023-05-22T07:18:01.181Z,22.94
2023-05-22T07:20:30.292Z,23.12
2023-05-22T07:22:59.199Z,23.35
2023-05-22T07:25:28.431Z,23.54
2023-05-22T07:27:58.175Z,23.68
2023-05-22T07:30:27.209Z,23.74
2023-05-22T07:32:56.225Z,23.81
2023-05-22T07:35:25.389Z,23.83
2023-05-22T07:37:54.234Z,23.99
2023-05-22T07:40:24.543Z,24.19
2023-05-22T07:42:55.309Z,24.41
2023-05-22T07:45:24.268Z,24.67
2023-05-22T07:47:54.862Z,24.82
2023-05-22T07:50:26.578Z,24.97
2023-05-22T07:52:55.717Z,25.17
2023-05-22T07:55:24.766Z,25.40
2023-05-22T07:57:53.775Z,25.65
2023-05-22T08:00:24.374Z,25.89
2023-05-22T08:02:53.472Z,26.19
2023-05-22T08:05:22.710Z,26.45
2023-05-22T08:07:51.762Z,26.63
2023-05-22T08:10:21.013Z,26.73
2023-05-22T08:12:49.930Z,26.63
2023-05-22T08:15:19.118Z,26.47
2023-05-22T08:17:48.156Z,26.40
2023-05-22T08:20:17.216Z,26.42
2023-05-22T08:22:47.032Z,26.58
2023-05-22T08:25:16.387Z,26.71
2023-05-22T08:27:45.622Z,26.71
2023-05-22T08:30:15.204Z,26.80
2023-05-22T08:32:44.509Z,26.91
2023-05-22T08:35:14.198Z,27.00
2023-05-22T08:37:43.309Z,26.73
2023-05-22T08:40:14.565Z,26.52
2023-05-22T08:42:43.645Z,26.54
2023-05-22T08:45:15.665Z,26.61
2023-05-22T08:47:45.952Z,26.71
2023-05-22T08:50:16.960Z,26.93
2023-05-22T08:52:50.750Z,27.20
2023-05-22T08:55:20.229Z,27.35
2023-05-22T08:57:50.154Z,27.39
2023-05-22T09:00:23.075Z,27.49
2023-05-22T09:02:55.174Z,27.69
2023-05-22T09:05:26.172Z,27.74
2023-05-22T09:08:02.648Z,27.76
2023-05-22T09:10:34.617Z,27.67
2023-05-22T09:13:04.707Z,27.46
2023-05-22T09:15:34.328Z,27.32
2023-05-22T09:18:05.662Z,27.28
2023-05-22T09:20:38.000Z,27.21
2023-05-22T09:23:13.903Z,27.13
2023-05-22T09:25:43.897Z,27.08
2023-05-22T09:28:13.215Z,27.06
2023-05-22T09:30:42.412Z,26.95
2023-05-22T09:33:13.634Z,26.84
2023-05-22T09:35:43.491Z,26.64
2023-05-22T09:38:12.979Z,26.59
2023-05-22T09:40:42.377Z,26.65
2023-05-22T09:43:11.765Z,26.66
2023-05-22T09:45:40.731Z,26.63
2023-05-22T09:48:10.322Z,26.67
2023-05-22T09:50:40.044Z,26.77
2023-05-22T09:53:10.337Z,26.98
2023-05-22T09:55:39.310Z,27.14
2023-05-22T09:58:11.249Z,27.20
2023-05-22T10:00:42.479Z,27.32
2023-05-22T10:03:12.011Z,27.52
2023-05-22T10:05:46.686Z,27.75
2023-05-22T10:08:21.321Z,28.02
2023-05-22T10:10:52.134Z,28.16
2023-05-22T10:13:21.743Z,28.28
2023-05-22T10:15:51.429Z,28.28
2023-05-22T10:18:20.979Z,28.14
2023-05-22T10:20:51.368Z,28.11
2023-05-22T10:23:21.978Z,28.26
2023-05-22T10:25:52.034Z,28.40
2023-05-22T10:28:27.768Z,28.43
2023-05-22T10:31:01.271Z,28.27
2023-05-22T10:33:35.285Z,28.21
2023-05-22T10:36:08.518Z,28.08
2023-05-22T10:38:57.686Z,28.10
2023-05-22T10:41:27.096Z,28.07
2023-05-22T10:43:57.524Z,28.09
2023-05-22T10:46:26.604Z,27.95
2023-05-22T10:48:57.630Z,27.74
2023-05-22T10:51:26.764Z,27.43
2023-05-22T10:54:01.706Z,27.30
2023-05-22T10:56:35.446Z,27.30
2023-05-22T10:59:07.263Z,27.36
2023-05-22T11:01:37.290Z,27.38
2023-05-22T11:04:12.409Z,27.31
2023-05-22T11:06:45.290Z,26.99
2023-05-22T11:09:29.860Z,26.75
2023-05-22T11:12:20.887Z,26.72
2023-05-22T11:14:51.055Z,26.76
2023-05-22T11:17:22.736Z,26.67
2023-05-22T11:20:06.810Z,26.39
2023-05-22T11:22:37.957Z,26.22
2023-05-22T11:25:10.201Z,26.08
2023-05-22T11:27:40.495Z,25.92
2023-05-22T11:30:12.049Z,25.82
2023-05-22T11:32:44.073Z,25.68
2023-05-22T11:35:16.647Z,25.61
2023-05-22T11:37:45.732Z,25.60
2023-05-22T11:40:17.393Z,25.60
2023-05-22T11:42:46.740Z,25.63
2023-05-22T11:45:17.238Z,25.60
2023-05-22T11:47:46.324Z,25.57
2023-05-22T11:50:22.543Z,25.62
2023-05-22T11:52:59.223Z,25.63
2023-05-22T11:55:28.160Z,25.61
2023-05-22T11:57:57.852Z,25.63
2023-05-22T12:00:28.827Z,25.64
2023-05-22T12:02:58.114Z,25.51
2023-05-22T12:05:26.973Z,25.44
2023-05-22T12:07:56.071Z,25.41
2023-05-22T12:10:26.240Z,25.45
2023-05-22T12:12:55.565Z,25.44
2023-05-22T12:15:25.359Z,25.37
2023-05-22T12:17:56.921Z,25.23
2023-05-22T12:20:33.195Z,25.17
2023-05-22T12:23:02.157Z,25.23
2023-05-22T12:25:38.814Z,25.23
2023-05-22T12:28:08.760Z,25.16
2023-05-22T12:30:43.702Z,25.08
2023-05-22T12:33:15.536Z,25.01
2023-05-22T12:35:44.605Z,24.90
2023-05-22T12:38:13.773Z,24.81
2023-05-22T12:40:42.941Z,24.75
2023-05-22T12:43:11.688Z,24.73
2023-05-22T12:45:41.799Z,24.67
2023-05-22T12:48:11.301Z,24.65
2023-05-22T12:50:40.510Z,24.59
2023-05-22T12:53:09.930Z,24.50
2023-05-22T12:55:39.217Z,24.47
2023-05-22T12:58:08.337Z,24.45
2023-05-22T13:00:37.534Z,24.45
2023-05-22T13:03:07.896Z,24.44
2023-05-22T13:05:36.850Z,24.38
2023-05-22T13:08:05.787Z,24.32
2023-05-22T13:10:35.186Z,24.31
2023-05-22T13:13:04.115Z,24.28
2023-05-22T13:15:35.580Z,24.28
2023-05-22T13:18:04.775Z,24.26
2023-05-22T13:20:35.474Z,24.21
2023-05-22T13:23:04.597Z,24.23
2023-05-22T13:25:33.547Z,24.26
2023-05-22T13:28:03.091Z,24.35
2023-05-22T13:30:32.040Z,24.42
2023-05-22T13:33:00.993Z,24.45
2023-05-22T13:35:30.385Z,24.49
2023-05-22T13:37:59.492Z,24.53
2023-05-22T13:40:28.382Z,24.53
2023-05-22T13:42:57.333Z,24.57
2023-05-22T13:45:27.029Z,24.61
2023-05-22T13:47:55.865Z,24.63
2023-05-22T13:50:24.830Z,24.69
2023-05-22T13:52:53.787Z,24.72
2023-05-22T13:55:23.192Z,24.76
2023-05-22T13:57:52.222Z,24.80
2023-05-22T14:00:22.365Z,24.84
2023-05-22T14:02:51.383Z,24.88
2023-05-22T14:05:20.474Z,24.90
2023-05-22T14:07:49.730Z,24.92
2023-05-22T14:10:18.898Z,24.94
2023-05-22T14:12:47.850Z,24.96
2023-05-22T14:15:16.813Z,24.99
2023-05-22T14:17:47.028Z,25.02
2023-05-22T14:20:16.049Z,25.02
2023-05-22T14:22:56.546Z,24.99
2023-05-22T14:25:26.941Z,24.95
2023-05-22T14:27:55.933Z,24.90
2023-05-22T14:30:25.170Z,24.85
2023-05-22T14:32:54.236Z,24.78
2023-05-22T14:35:23.529Z,24.70
2023-05-22T14:37:52.658Z,24.65
2023-05-22T14:40:22.048Z,24.66
2023-05-22T14:42:53.295Z,24.68
2023-05-22T14:45:23.486Z,24.67
2023-05-22T14:47:52.606Z,24.68
2023-05-22T14:50:21.775Z,24.68
2023-05-22T14:52:51.109Z,24.68
2023-05-22T14:55:21.191Z,24.68
2023-05-22T14:57:50.210Z,24.69
2023-05-22T15:00:20.049Z,24.69
2023-05-22T15:02:49.212Z,24.68
2023-05-22T15:05:18.443Z,24.67
2023-05-22T15:07:49.121Z,24.66
2023-05-22T15:10:21.267Z,24.64
2023-05-22T15:12:50.126Z,24.63
2023-05-22T15:15:19.444Z,24.61
2023-05-22T15:17:48.463Z,24.61
2023-05-22T15:20:18.006Z,24.62
2023-05-22T15:22:47.289Z,24.63
2023-05-22T15:25:16.264Z,24.63
2023-05-22T15:27:45.565Z,24.51
2023-05-22T15:30:16.401Z,24.44
2023-05-22T15:32:45.726Z,24.47
2023-05-22T15:35:14.772Z,24.50
2023-05-22T15:37:44.510Z,24.52
2023-05-22T15:40:17.610Z,24.54
2023-05-22T15:42:46.704Z,24.59
2023-05-22T15:45:15.610Z,24.61
2023-05-22T15:47:44.669Z,24.64
2023-05-22T15:50:13.651Z,24.67
2023-05-22T15:52:42.652Z,24.69
2023-05-22T15:55:11.692Z,24.69
2023-05-22T15:57:40.625Z,24.72
2023-05-22T16:00:11.992Z,24.74
2023-05-22T16:02:41.135Z,24.69
2023-05-22T16:05:10.856Z,24.63
2023-05-22T16:07:39.763Z,24.58
2023-05-22T16:10:10.181Z,24.53
2023-05-22T16:12:40.756Z,24.48
2023-05-22T16:15:11.756Z,24.45
2023-05-22T16:17:40.626Z,24.45
2023-05-22T16:20:11.226Z,24.43
2023-05-22T16:22:48.049Z,24.41
2023-05-22T16:25:18.666Z,24.38
2023-05-22T16:27:47.541Z,24.33
2023-05-22T16:30:17.566Z,24.26
2023-05-22T16:32:47.362Z,24.21
2023-05-22T16:35:18.384Z,24.15
2023-05-22T16:37:47.684Z,24.09
2023-05-22T16:40:16.980Z,24.07
2023-05-22T16:42:46.829Z,24.02
2023-05-22T16:45:15.924Z,23.99
2023-05-22T16:47:45.012Z,23.97
2023-05-22T16:50:14.063Z,23.93
2023-05-22T16:52:42.964Z,23.90
2023-05-22T16:55:12.153Z,23.86
2023-05-22T16:57:42.143Z,23.83
2023-05-22T17:00:13.447Z,23.77
2023-05-22T17:02:42.480Z,23.72
2023-05-22T17:05:11.755Z,23.67
2023-05-22T17:07:40.682Z,23.64
2023-05-22T17:10:11.498Z,23.60
2023-05-22T17:12:40.505Z,23.56
2023-05-22T17:15:11.637Z,23.49
2023-05-22T17:17:40.758Z,23.44
2023-05-22T17:20:11.347Z,23.39
2023-05-22T17:22:40.298Z,23.36
2023-05-22T17:25:11.018Z,23.31
2023-05-22T17:27:40.164Z,23.25
2023-05-22T17:30:10.848Z,23.19
2023-05-22T17:32:39.942Z,23.14
2023-05-22T17:35:09.334Z,23.11
2023-05-22T17:37:38.202Z,23.06
2023-05-22T17:40:09.693Z,23.01
2023-05-22T17:42:38.796Z,22.97
2023-05-22T17:45:10.565Z,22.93
2023-05-22T17:47:39.879Z,22.89
2023-05-22T17:50:11.163Z,22.85
2023-05-22T17:52:40.835Z,22.83
2023-05-22T17:55:10.664Z,22.80
2023-05-22T17:57:39.654Z,22.77
2023-05-22T18:00:11.424Z,22.75
2023-05-22T18:02:40.605Z,22.73
2023-05-22T18:05:11.476Z,22.73
2023-05-22T18:07:40.504Z,22.70
2023-05-22T18:10:10.495Z,22.69
2023-05-22T18:12:40.465Z,22.68
2023-05-22T18:15:11.659Z,22.65
2023-05-22T18:17:41.126Z,22.63
2023-05-22T18:20:11.954Z,22.61
2023-05-22T18:22:41.171Z,22.60
2023-05-22T18:25:11.973Z,22.59
2023-05-22T18:27:41.055Z,22.57
2023-05-22T18:30:11.850Z,22.55
2023-05-22T18:32:40.997Z,22.51
2023-05-22T18:35:10.569Z,22.49
2023-05-22T18:37:39.501Z,22.46
2023-05-22T18:40:10.987Z,22.43
2023-05-22T18:42:40.012Z,22.41
2023-05-22T18:45:11.371Z,22.37
2023-05-22T18:47:40.741Z,22.33
2023-05-22T18:50:11.627Z,22.29
2023-05-22T18:52:40.697Z,22.26
2023-05-22T18:55:11.630Z,22.23
2023-05-22T18:57:40.599Z,22.18
2023-05-22T19:00:11.645Z,22.14
2023-05-22T19:02:40.771Z,22.10
2023-05-22T19:05:11.083Z,22.06
2023-05-22T19:07:40.115Z,22.02
2023-05-22T19:10:11.079Z,22.01
2023-05-22T19:12:40.074Z,21.98
2023-05-22T19:15:11.310Z,21.94
2023-05-22T19:17:40.387Z,21.91
2023-05-22T19:20:11.637Z,21.88
2023-05-22T19:22:40.868Z,21.85
2023-05-22T19:25:10.444Z,21.82
2023-05-22T19:27:39.681Z,21.79
2023-05-22T19:30:10.619Z,21.75
2023-05-22T19:32:39.629Z,21.70
2023-05-22T19:35:10.729Z,21.67
2023-05-22T19:37:39.858Z,21.64
2023-05-22T19:40:10.934Z,21.63
2023-05-22T19:42:41.460Z,21.59
2023-05-22T19:45:11.519Z,21.56
2023-05-22T19:47:40.909Z,21.54
2023-05-22T19:50:11.782Z,21.49
2023-05-22T19:52:41.196Z,21.45
2023-05-22T19:55:10.817Z,21.41
2023-05-22T19:57:43.667Z,21.37
2023-05-22T20:00:15.353Z,21.32
2023-05-22T20:02:44.459Z,21.24
2023-05-22T20:05:13.812Z,21.13
2023-05-22T20:07:43.396Z,21.04
2023-05-22T20:10:12.673Z,20.97
2023-05-22T20:12:41.706Z,20.90
2023-05-22T20:15:14.182Z,20.83
2023-05-22T20:17:46.975Z,20.76
2023-05-22T20:20:16.363Z,20.69
2023-05-22T20:22:45.256Z,20.67
2023-05-22T20:25:14.431Z,20.60
2023-05-22T20:27:43.497Z,20.53
2023-05-22T20:30:14.317Z,20.44
2023-05-22T20:32:45.276Z,20.35
2023-05-22T20:35:17.948Z,20.30
2023-05-22T20:37:46.924Z,20.26
2023-05-22T20:40:16.886Z,20.22
2023-05-22T20:42:46.882Z,20.16
2023-05-22T20:45:16.913Z,20.11
2023-05-22T20:47:45.894Z,20.07
2023-05-22T20:50:15.527Z,20.04
2023-05-22T20:52:45.331Z,19.99
2023-05-22T20:55:14.297Z,19.96
2023-05-22T20:57:43.175Z,19.92
2023-05-22T21:00:14.380Z,19.86
2023-05-22T21:02:43.432Z,19.80
2023-05-22T21:05:12.825Z,19.73
2023-05-22T21:07:41.845Z,19.67
2023-05-22T21:10:12.190Z,19.64
2023-05-22T21:12:41.102Z,19.61
2023-05-22T21:15:11.953Z,19.56
2023-05-22T21:17:40.976Z,19.53
2023-05-22T21:20:11.449Z,19.51
2023-05-22T21:22:40.622Z,19.50
2023-05-22T21:25:10.873Z,19.50
2023-05-22T21:27:40.352Z,19.49
2023-05-22T21:30:12.486Z,19.48
2023-05-22T21:32:41.943Z,19.42
2023-05-22T21:35:11.742Z,19.36
2023-05-22T21:37:40.728Z,19.34
2023-05-22T21:40:11.627Z,19.26
2023-05-22T21:42:46.741Z,19.15
2023-05-22T21:45:16.610Z,19.09
2023-05-22T21:47:45.813Z,19.03
2023-05-22T21:50:14.720Z,18.97
2023-05-22T21:52:43.669Z,18.90
2023-05-22T21:55:12.639Z,18.86
2023-05-22T21:57:41.811Z,18.82
2023-05-22T22:00:14.659Z,18.81
2023-05-22T22:02:43.722Z,18.79
2023-05-22T22:05:13.058Z,18.79
2023-05-22T22:07:42.178Z,18.79
2023-05-22T22:10:11.860Z,18.78
2023-05-22T22:12:41.021Z,18.78
2023-05-22T22:15:12.025Z,18.77
2023-05-22T22:17:41.184Z,18.76
2023-05-22T22:20:11.682Z,18.75
2023-05-22T22:22:40.918Z,18.74
2023-05-22T22:25:10.522Z,18.71
2023-05-22T22:27:39.586Z,18.67
2023-05-22T22:30:10.847Z,18.64
2023-05-22T22:32:39.907Z,18.60
2023-05-22T22:35:09.778Z,18.57
2023-05-22T22:37:38.851Z,18.54
2023-05-22T22:40:09.947Z,18.54
2023-05-22T22:42:38.824Z,18.49
2023-05-22T22:45:09.561Z,18.37
2023-05-22T22:47:39.226Z,18.24
2023-05-22T22:50:10.231Z,18.19
2023-05-22T22:52:44.660Z,18.17
2023-05-22T22:55:13.604Z,18.16
2023-05-22T22:57:44.184Z,18.15
2023-05-22T23:00:15.551Z,18.15
2023-05-22T23:02:44.857Z,18.12
2023-05-22T23:05:14.357Z,18.04
2023-05-22T23:07:43.990Z,18.04
2023-05-22T23:10:13.208Z,18.03
2023-05-22T23:12:42.848Z,18.05
2023-05-22T23:15:13.668Z,18.05
2023-05-22T23:17:42.729Z,18.06
2023-05-22T23:20:12.844Z,18.06
2023-05-22T23:22:42.712Z,18.03
2023-05-22T23:25:12.025Z,18.02
2023-05-22T23:27:41.426Z,18.01
2023-05-22T23:30:11.791Z,17.99
2023-05-22T23:32:40.687Z,17.97
2023-05-22T23:35:10.643Z,17.96
2023-05-22T23:37:40.010Z,17.94
2023-05-22T23:40:11.072Z,17.93
2023-05-22T23:42:40.251Z,17.93
2023-05-22T23:45:10.311Z,17.90
2023-05-22T23:47:39.297Z,17.86
2023-05-22T23:50:10.072Z,17.85
2023-05-22T23:52:39.263Z,17.84
2023-05-22T23:55:10.191Z,17.83
2023-05-22T23:57:39.133Z,17.80
